createdAt,value
2022-09-01T00:01:53.672Z,20.12
2022-09-01T00:04:27.304Z,20.04
2022-09-01T00:06:57.164Z,20.01
2022-09-01T00:09:25.690Z,19.98
2022-09-01T00:11:56.046Z,19.91
2022-09-01T00:14:31.227Z,19.88
2022-09-01T00:17:00.668Z,19.82
2022-09-01T00:19:30.488Z,19.57
2022-09-01T00:22:01.511Z,19.75
2022-09-01T00:24:30.520Z,19.76
2022-09-01T00:26:58.907Z,19.76
2022-09-01T00:29:27.948Z,19.78
2022-09-01T00:31:56.304Z,19.82
2022-09-01T00:34:24.891Z,19.83
2022-09-01T00:36:53.201Z,19.76
2022-09-01T00:39:23.236Z,19.73
2022-09-01T00:41:51.807Z,19.71
2022-09-01T00:44:24.703Z,19.71
2022-09-01T00:46:55.908Z,19.66
2022-09-01T00:49:31.428Z,19.57
2022-09-01T00:52:05.693Z,19.55
2022-09-01T00:54:40.106Z,19.51
2022-09-01T00:57:12.823Z,19.42
2022-09-01T00:59:48.109Z,19.18
2022-09-01T01:02:16.920Z,19.32
2022-09-01T01:04:46.384Z,19.30
2022-09-01T01:07:17.388Z,19.09
2022-09-01T01:09:48.555Z,19.22
2022-09-01T01:12:19.005Z,19.21
2022-09-01T01:14:50.592Z,19.21
2022-09-01T01:17:20.732Z,19.17
2022-09-01T01:20:09.224Z,19.16
2022-09-01T01:23:08.528Z,19.16
2022-09-01T01:25:42.318Z,19.07
2022-09-01T01:28:15.701Z,19.03
2022-09-01T01:30:51.218Z,19.01
2022-09-01T01:33:20.384Z,19.00
2022-09-01T01:35:50.731Z,18.96
2022-09-01T01:38:20.898Z,18.97
2022-09-01T01:40:53.994Z,18.98
2022-09-01T01:43:25.213Z,18.92
2022-09-01T01:45:56.840Z,18.86
2022-09-01T01:48:34.757Z,18.79
2022-09-01T01:51:04.668Z,18.81
2022-09-01T01:53:34.387Z,18.77
2022-09-01T01:56:06.300Z,18.74
2022-09-01T01:58:37.208Z,18.72
2022-09-01T02:01:13.240Z,18.66
2022-09-01T02:03:42.119Z,18.67
2022-09-01T02:06:12.384Z,18.66
2022-09-01T02:08:43.907Z,18.60
2022-09-01T02:11:17.401Z,18.58
2022-09-01T02:13:47.060Z,18.54
2022-09-01T02:16:16.998Z,18.51
2022-09-01T02:18:48.711Z,18.47
2022-09-01T02:21:20.350Z,18.41
2022-09-01T02:23:50.368Z,18.39
2022-09-01T02:26:22.950Z,18.41
2022-09-01T02:28:55.150Z,18.46
2022-09-01T02:31:29.056Z,18.52
2022-09-01T02:34:01.278Z,18.52
2022-09-01T02:36:32.987Z,18.55
2022-09-01T02:39:02.535Z,18.49
2022-09-01T02:41:34.605Z,18.42
2022-09-01T02:44:05.919Z,18.36
2022-09-01T02:46:37.990Z,18.37
2022-09-01T02:49:08.831Z,18.33
2022-09-01T02:51:37.482Z,18.25
2022-09-01T02:54:06.472Z,18.25
2022-09-01T02:56:36.815Z,18.22
2022-09-01T02:59:13.185Z,18.26
2022-09-01T03:01:41.933Z,18.26
2022-09-01T03:04:12.767Z,18.21
2022-09-01T03:06:41.961Z,18.20
2022-09-01T03:09:14.792Z,18.16
2022-09-01T03:11:46.868Z,18.13
2022-09-01T03:14:15.877Z,18.12
2022-09-01T03:16:44.644Z,18.08
2022-09-01T03:19:13.453Z,18.04
2022-09-01T03:21:46.155Z,17.40
2022-09-01T03:24:19.728Z,18.10
2022-09-01T03:26:52.542Z,18.14
2022-09-01T03:29:21.600Z,18.08
2022-09-01T03:31:50.561Z,17.99
2022-09-01T03:34:23.690Z,18.03
2022-09-01T03:36:54.553Z,17.99
2022-09-01T03:39:28.043Z,17.89
2022-09-01T03:41:58.998Z,17.91
2022-09-01T03:44:28.348Z,17.91
2022-09-01T03:46:58.520Z,17.89
2022-09-01T03:49:28.731Z,17.93
2022-09-01T03:51:58.825Z,17.93
2022-09-01T03:54:30.779Z,17.91
2022-09-01T03:57:00.780Z,17.90
2022-09-01T03:59:30.639Z,17.83
2022-09-01T04:01:59.985Z,17.77
2022-09-01T04:04:29.491Z,17.75
2022-09-01T04:06:57.788Z,17.76
2022-09-01T04:09:26.171Z,17.78
2022-09-01T04:11:55.855Z,17.80
2022-09-01T04:14:29.284Z,17.79
2022-09-01T04:17:16.575Z,17.77
2022-09-01T04:19:45.023Z,17.70
2022-09-01T04:22:14.543Z,17.63
2022-09-01T04:24:46.807Z,17.57
2022-09-01T04:27:18.813Z,17.33
2022-09-01T04:29:48.744Z,17.54
2022-09-01T04:32:21.450Z,17.52
2022-09-01T04:34:53.496Z,17.47
2022-09-01T04:37:23.732Z,17.49
2022-09-01T04:39:57.623Z,17.50
2022-09-01T04:42:29.889Z,17.50
2022-09-01T04:45:09.940Z,17.54
2022-09-01T04:47:43.022Z,17.50
2022-09-01T04:50:17.882Z,17.53
2022-09-01T04:53:07.253Z,17.50
2022-09-01T04:55:46.268Z,17.47
2022-09-01T04:58:19.959Z,17.51
2022-09-01T05:00:53.152Z,17.55
2022-09-01T05:03:24.386Z,17.53
2022-09-01T05:06:00.364Z,17.50
2022-09-01T05:08:29.262Z,17.48
2022-09-01T05:11:08.080Z,17.45
2022-09-01T05:13:42.507Z,17.37
2022-09-01T05:16:15.233Z,17.44
2022-09-01T05:18:49.036Z,17.47
2022-09-01T05:21:22.611Z,17.50
2022-09-01T05:23:51.939Z,17.51
2022-09-01T05:26:24.042Z,17.50
2022-09-01T05:28:56.320Z,17.40
2022-09-01T05:31:28.655Z,17.56
2022-09-01T05:33:58.337Z,17.66
2022-09-01T05:36:26.893Z,17.69
2022-09-01T05:38:57.175Z,17.63
2022-09-01T05:41:25.904Z,17.55
2022-09-01T05:43:59.962Z,17.68
2022-09-01T05:46:31.152Z,17.70
2022-09-01T05:49:00.215Z,17.69
2022-09-01T05:51:50.371Z,17.71
2022-09-01T05:54:27.504Z,17.83
2022-09-01T05:57:12.730Z,17.92
2022-09-01T05:59:53.922Z,18.07
2022-09-01T06:02:27.370Z,18.21
2022-09-01T06:04:59.958Z,18.30
2022-09-01T06:07:34.004Z,18.43
2022-09-01T06:10:04.471Z,18.54
2022-09-01T06:12:34.146Z,18.70
2022-09-01T06:15:03.364Z,18.78
2022-09-01T06:17:36.699Z,18.90
2022-09-01T06:20:10.783Z,18.98
2022-09-01T06:22:42.200Z,19.09
2022-09-01T06:25:11.810Z,19.23
2022-09-01T06:27:44.972Z,19.44
2022-09-01T06:30:20.140Z,19.62
2022-09-01T06:33:02.367Z,20.24
2022-09-01T06:35:33.085Z,20.74
2022-09-01T06:38:02.120Z,21.24
2022-09-01T06:40:51.130Z,21.83
2022-09-01T06:43:23.939Z,22.40
2022-09-01T06:45:54.610Z,22.96
2022-09-01T06:48:26.484Z,23.50
2022-09-01T06:51:20.978Z,23.97
2022-09-01T06:53:59.503Z,24.48
2022-09-01T06:56:42.834Z,24.57
2022-09-01T06:59:15.703Z,25.28
2022-09-01T07:05:04.424Z,26.10
2022-09-01T07:13:36.623Z,27.27
2022-09-01T07:16:35.411Z,27.61
2022-09-01T07:19:06.734Z,27.89
2022-09-01T07:21:40.778Z,28.01
2022-09-01T07:24:13.127Z,28.03
2022-09-01T07:26:54.413Z,27.96
2022-09-01T07:29:25.870Z,27.86
2022-09-01T07:34:47.755Z,27.57
2022-09-01T07:43:19.019Z,27.18
2022-09-01T07:49:30.699Z,27.20
2022-09-01T07:51:53.230Z,27.18
2022-09-01T07:54:25.388Z,27.20
2022-09-01T07:56:54.855Z,27.26
2022-09-01T07:59:24.090Z,27.25
2022-09-01T08:02:04.641Z,27.32
2022-09-01T08:04:34.229Z,27.37
2022-09-01T08:07:03.232Z,27.39
2022-09-01T08:09:38.028Z,27.43
2022-09-01T08:12:09.803Z,27.49
2022-09-01T08:14:47.116Z,27.57
2022-09-01T08:17:33.091Z,27.60
2022-09-01T08:20:09.529Z,27.59
2022-09-01T08:23:01.689Z,27.41
2022-09-01T08:25:48.865Z,27.70
2022-09-01T08:28:29.058Z,27.74
2022-09-01T08:31:00.208Z,27.75
2022-09-01T08:33:29.580Z,27.82
2022-09-01T08:35:57.886Z,27.92
2022-09-01T08:38:28.137Z,27.96
2022-09-01T08:41:00.945Z,28.05
2022-09-01T08:43:49.417Z,28.10
2022-09-01T08:46:24.650Z,28.12
2022-09-01T08:49:24.228Z,28.18
2022-09-01T08:52:25.532Z,28.23
2022-09-01T08:55:01.672Z,28.18
2022-09-01T08:57:36.202Z,27.88
2022-09-01T09:00:24.969Z,28.49
2022-09-01T09:03:08.602Z,28.59
2022-09-01T09:05:49.032Z,28.66
2022-09-01T09:08:49.840Z,28.76
2022-09-01T09:11:36.019Z,28.86
2022-09-01T09:14:12.526Z,28.90
2022-09-01T09:16:43.922Z,28.59
2022-09-01T09:19:18.220Z,28.93
2022-09-01T09:21:48.202Z,28.98
2022-09-01T09:24:25.460Z,29.05
2022-09-01T09:26:58.935Z,29.08
2022-09-01T09:29:29.952Z,29.19
2022-09-01T09:32:06.162Z,29.09
2022-09-01T09:34:37.735Z,29.22
2022-09-01T09:37:22.092Z,29.26
2022-09-01T09:40:15.243Z,29.29
2022-09-01T09:43:03.430Z,29.30
2022-09-01T09:45:35.173Z,29.35
2022-09-01T09:48:10.891Z,29.38
2022-09-01T09:50:43.315Z,29.42
2022-09-01T09:53:28.492Z,29.48
2022-09-01T09:56:01.282Z,29.55
2022-09-01T09:58:37.629Z,29.59
2022-09-01T10:01:17.801Z,29.64
2022-09-01T10:03:50.569Z,29.68
2022-09-01T10:06:34.598Z,29.77
2022-09-01T10:09:05.684Z,29.83
2022-09-01T10:11:40.927Z,29.90
2022-09-01T10:14:35.273Z,29.98
2022-09-01T10:17:09.784Z,30.08
2022-09-01T10:19:42.156Z,30.20
2022-09-01T10:22:15.197Z,30.27
2022-09-01T10:24:45.990Z,30.32
2022-09-01T10:27:21.838Z,30.37
2022-09-01T10:32:54.983Z,30.49
2022-09-01T10:35:27.618Z,30.57
2022-09-01T10:37:59.130Z,30.52
2022-09-01T10:40:50.036Z,30.70
2022-09-01T10:43:38.489Z,30.86
2022-09-01T10:46:41.863Z,31.03
2022-09-01T10:49:25.228Z,31.11
2022-09-01T10:51:57.047Z,31.27
2022-09-01T10:54:56.027Z,31.48
2022-09-01T10:57:46.403Z,31.57
2022-09-01T11:04:01.335Z,31.50
2022-09-01T11:07:17.169Z,31.54
2022-09-01T11:10:32.075Z,31.67
2022-09-01T11:13:33.096Z,31.87
2022-09-01T11:19:31.153Z,31.94
2022-09-01T11:22:15.482Z,31.84
2022-09-01T11:25:12.065Z,32.00
2022-09-01T11:28:02.185Z,32.14
2022-09-01T11:30:52.049Z,32.27
2022-09-01T11:33:33.888Z,32.37
2022-09-01T11:36:05.025Z,32.44
2022-09-01T11:38:50.641Z,32.40
2022-09-01T11:41:24.640Z,32.63
2022-09-01T11:43:58.026Z,31.95
2022-09-01T11:46:32.717Z,32.83
2022-09-01T11:49:07.565Z,32.88
2022-09-01T11:51:47.515Z,32.92
2022-09-01T11:54:17.642Z,33.05
2022-09-01T11:56:45.851Z,33.10
2022-09-01T11:59:14.080Z,33.18
2022-09-01T12:01:42.533Z,33.12
2022-09-01T12:04:33.661Z,33.32
2022-09-01T12:07:04.497Z,33.34
2022-09-01T12:09:43.005Z,33.35
2022-09-01T12:12:30.708Z,33.32
2022-09-01T12:15:05.625Z,33.29
2022-09-01T12:17:35.116Z,33.20
2022-09-01T12:20:31.880Z,33.19
2022-09-01T12:23:02.577Z,33.15
2022-09-01T12:25:35.399Z,33.19
2022-09-01T12:28:06.173Z,33.14
2022-09-01T12:30:39.584Z,33.27
2022-09-01T12:33:26.239Z,33.25
2022-09-01T12:36:17.015Z,33.34
2022-09-01T12:38:45.301Z,33.39
2022-09-01T12:41:35.134Z,33.29
2022-09-01T12:44:30.525Z,33.25
2022-09-01T12:47:00.637Z,33.29
2022-09-01T12:49:45.120Z,33.26
2022-09-01T12:52:25.463Z,33.26
2022-09-01T12:55:07.164Z,33.27
2022-09-01T12:57:39.568Z,33.33
2022-09-01T13:00:18.285Z,33.24
2022-09-01T13:02:48.512Z,33.31
2022-09-01T13:05:30.228Z,33.41
2022-09-01T13:08:02.932Z,33.50
2022-09-01T13:10:38.151Z,33.50
2022-09-01T13:13:10.545Z,33.58
2022-09-01T13:15:40.571Z,33.66
2022-09-01T13:18:08.751Z,33.64
2022-09-01T13:20:37.603Z,33.61
2022-09-01T13:23:05.837Z,33.57
2022-09-01T13:25:34.064Z,33.58
2022-09-01T13:28:02.694Z,33.60
2022-09-01T13:30:32.423Z,33.57
2022-09-01T13:35:49.524Z,33.60
2022-09-01T13:38:18.173Z,33.58
2022-09-01T13:40:47.634Z,33.53
2022-09-01T13:43:16.952Z,33.51
2022-09-01T13:45:47.390Z,33.37
2022-09-01T13:48:17.040Z,33.38
2022-09-01T13:53:37.948Z,33.30
2022-09-01T13:56:06.570Z,33.25
2022-09-01T13:58:34.815Z,33.23
2022-09-01T14:01:05.228Z,33.23
2022-09-01T14:03:33.655Z,33.24
2022-09-01T14:06:02.273Z,33.24
2022-09-01T14:08:31.495Z,33.33
2022-09-01T14:11:00.196Z,33.42
2022-09-01T14:13:30.164Z,33.44
2022-09-01T14:15:59.072Z,33.50
2022-09-01T14:18:36.906Z,33.55
2022-09-01T14:21:05.494Z,33.56
2022-09-01T14:23:33.760Z,33.53
2022-09-01T14:26:02.048Z,33.47
2022-09-01T14:28:30.294Z,33.41
2022-09-01T14:33:27.434Z,33.12
2022-09-01T14:35:57.204Z,32.98
2022-09-01T14:38:25.383Z,32.86
2022-09-01T14:40:53.812Z,32.84
2022-09-01T14:43:22.601Z,32.81
2022-09-01T14:45:50.874Z,32.77
2022-09-01T14:48:20.831Z,32.62
2022-09-01T14:50:51.114Z,32.50
2022-09-01T14:53:24.080Z,32.44
2022-09-01T14:55:55.632Z,32.40
2022-09-01T14:58:26.620Z,32.40
2022-09-01T15:01:03.557Z,32.46
2022-09-01T15:03:35.791Z,32.53
2022-09-01T15:06:04.149Z,32.62
2022-09-01T15:08:33.824Z,32.63
2022-09-01T15:11:02.615Z,32.57
2022-09-01T15:13:30.893Z,32.53
2022-09-01T15:15:59.740Z,32.46
2022-09-01T15:18:27.960Z,32.46
2022-09-01T15:20:56.346Z,32.44
2022-09-01T15:23:26.284Z,32.51
2022-09-01T15:25:57.948Z,32.53
2022-09-01T15:28:26.597Z,32.54
2022-09-01T15:30:57.074Z,31.94
2022-09-01T15:33:25.368Z,32.51
2022-09-01T15:35:53.815Z,32.41
2022-09-01T15:38:28.371Z,32.36
2022-09-01T15:41:00.486Z,32.28
2022-09-01T15:43:29.470Z,32.29
2022-09-01T15:45:59.346Z,32.33
2022-09-01T15:48:28.415Z,32.21
2022-09-01T15:51:26.814Z,32.05
2022-09-01T15:53:57.847Z,31.68
2022-09-01T15:56:28.240Z,31.72
2022-09-01T15:59:01.620Z,31.58
2022-09-01T16:01:33.374Z,31.52
2022-09-01T16:04:02.628Z,31.45
2022-09-01T16:06:31.744Z,31.44
2022-09-01T16:09:00.282Z,31.42
2022-09-01T16:11:30.000Z,31.37
2022-09-01T16:13:58.697Z,31.27
2022-09-01T16:16:42.770Z,31.18
2022-09-01T16:19:22.838Z,31.10
2022-09-01T16:21:59.161Z,31.08
2022-09-01T16:24:28.349Z,31.06
2022-09-01T16:26:58.566Z,31.01
2022-09-01T16:29:44.990Z,30.99
2022-09-01T16:32:14.340Z,30.98
2022-09-01T16:34:47.149Z,30.93
2022-09-01T16:37:27.209Z,30.88
2022-09-01T16:40:05.783Z,30.78
2022-09-01T16:42:46.978Z,30.69
2022-09-01T16:45:21.767Z,30.61
2022-09-01T16:48:02.698Z,30.51
2022-09-01T16:50:41.587Z,30.37
2022-09-01T16:53:19.058Z,30.31
2022-09-01T16:55:58.943Z,30.23
2022-09-01T16:58:41.508Z,30.12
2022-09-01T17:01:24.683Z,29.94
2022-09-01T17:04:10.003Z,29.85
2022-09-01T17:06:49.196Z,29.76
2022-09-01T17:09:23.229Z,29.72
2022-09-01T17:11:54.917Z,29.64
2022-09-01T17:14:37.159Z,29.59
2022-09-01T17:17:11.000Z,29.49
2022-09-01T17:19:41.897Z,29.41
2022-09-01T17:22:13.875Z,29.33
2022-09-01T17:24:44.396Z,29.03
2022-09-01T17:27:19.847Z,29.10
2022-09-01T17:29:53.384Z,29.05
2022-09-01T17:32:48.349Z,28.96
2022-09-01T17:35:26.121Z,28.88
2022-09-01T17:38:06.494Z,28.82
2022-09-01T17:40:50.545Z,28.70
2022-09-01T17:43:26.873Z,28.61
2022-09-01T17:46:04.898Z,28.54
2022-09-01T17:48:51.029Z,28.44
2022-09-01T17:51:28.502Z,28.31
2022-09-01T17:54:09.653Z,28.25
2022-09-01T17:56:45.735Z,28.17
2022-09-01T17:59:22.578Z,28.08
2022-09-01T18:02:04.088Z,28.01
2022-09-01T18:04:57.200Z,27.92
2022-09-01T18:07:41.505Z,27.80
2022-09-01T18:10:15.512Z,27.69
2022-09-01T18:12:46.684Z,27.61
2022-09-01T18:15:18.099Z,27.54
2022-09-01T18:17:51.816Z,27.41
2022-09-01T18:20:25.893Z,26.85
2022-09-01T18:23:02.466Z,27.22
2022-09-01T18:25:39.160Z,27.14
2022-09-01T18:28:09.271Z,27.04
2022-09-01T18:30:54.160Z,26.73
2022-09-01T18:33:30.449Z,26.41
2022-09-01T18:36:23.712Z,26.50
2022-09-01T18:39:00.302Z,26.27
2022-09-01T18:41:54.113Z,26.30
2022-09-01T18:44:37.388Z,26.23
2022-09-01T18:47:11.225Z,26.08
2022-09-01T18:49:53.767Z,26.00
2022-09-01T18:52:50.939Z,25.63
2022-09-01T18:55:25.915Z,25.71
2022-09-01T18:57:58.837Z,25.56
2022-09-01T19:00:36.973Z,25.88
2022-09-01T19:03:17.034Z,25.50
2022-09-01T19:06:13.216Z,25.29
2022-09-01T19:08:55.333Z,25.14
2022-09-01T19:11:34.333Z,25.02
2022-09-01T19:14:12.161Z,24.91
2022-09-01T19:16:56.072Z,24.78
2022-09-01T19:19:40.394Z,24.63
2022-09-01T19:22:12.048Z,24.51
2022-09-01T19:24:48.258Z,24.46
2022-09-01T19:27:22.376Z,24.44
2022-09-01T19:29:56.257Z,24.36
2022-09-01T19:32:32.037Z,24.27
2022-09-01T19:35:07.966Z,24.18
2022-09-01T19:37:37.857Z,24.16
2022-09-01T19:40:08.599Z,24.12
2022-09-01T19:42:44.579Z,24.02
2022-09-01T19:45:18.897Z,23.91
2022-09-01T19:47:52.701Z,23.83
2022-09-01T19:50:24.835Z,23.78
2022-09-01T19:53:00.738Z,23.80
2022-09-01T19:55:34.185Z,23.73
2022-09-01T19:58:08.587Z,23.67
2022-09-01T20:00:51.161Z,23.56
2022-09-01T20:03:23.548Z,23.00
2022-09-01T20:05:58.336Z,23.40
2022-09-01T20:08:36.041Z,23.27
2022-09-01T20:11:10.264Z,23.25
2022-09-01T20:14:03.419Z,23.19
2022-09-01T20:16:35.487Z,22.88
2022-09-01T20:19:10.560Z,23.23
2022-09-01T20:21:43.504Z,23.15
2022-09-01T20:24:21.068Z,23.18
2022-09-01T20:27:00.234Z,23.14
2022-09-01T20:29:35.109Z,23.09
2022-09-01T20:32:05.410Z,23.06
2022-09-01T20:34:40.032Z,23.03
2022-09-01T20:37:19.455Z,22.99
2022-09-01T20:40:01.086Z,22.85
2022-09-01T20:42:38.465Z,22.73
2022-09-01T20:45:13.429Z,22.24
2022-09-01T20:47:42.985Z,22.56
2022-09-01T20:50:14.636Z,22.51
2022-09-01T20:52:56.825Z,22.44
2022-09-01T20:55:33.897Z,22.39
2022-09-01T20:58:11.245Z,22.13
2022-09-01T21:00:49.726Z,21.72
2022-09-01T21:03:33.968Z,22.08
2022-09-01T21:06:09.543Z,22.01
2022-09-01T21:08:45.140Z,21.97
2022-09-01T21:11:32.436Z,21.93
2022-09-01T21:14:13.868Z,21.89
2022-09-01T21:16:53.192Z,21.85
2022-09-01T21:19:33.036Z,21.79
2022-09-01T21:22:06.477Z,21.75
2022-09-01T21:24:35.401Z,21.74
2022-09-01T21:27:09.527Z,21.75
2022-09-01T21:29:56.082Z,21.73
2022-09-01T21:32:24.453Z,21.70
2022-09-01T21:34:54.163Z,21.66
2022-09-01T21:37:23.892Z,21.60
2022-09-01T21:39:54.180Z,21.51
2022-09-01T21:42:31.604Z,21.44
2022-09-01T21:45:01.763Z,21.09
2022-09-01T21:47:30.626Z,21.32
2022-09-01T21:49:59.088Z,21.25
2022-09-01T21:52:27.823Z,21.23
2022-09-01T21:54:56.086Z,21.20
2022-09-01T21:57:25.748Z,21.21
2022-09-01T21:59:54.087Z,21.19
2022-09-01T22:02:22.489Z,21.10
2022-09-01T22:04:57.704Z,21.06
2022-09-01T22:07:25.985Z,21.12
2022-09-01T22:09:57.943Z,21.20
2022-09-01T22:12:28.455Z,21.24
2022-09-01T22:14:57.057Z,21.22
2022-09-01T22:17:27.228Z,21.15
2022-09-01T22:19:55.560Z,21.09
2022-09-01T22:22:23.845Z,21.06
2022-09-01T22:24:52.240Z,21.56
2022-09-01T22:27:21.293Z,21.29
2022-09-01T22:29:52.344Z,21.11
2022-09-01T22:32:23.261Z,21.01
2022-09-01T22:34:52.892Z,20.88
2022-09-01T22:37:21.369Z,20.80
2022-09-01T22:39:49.900Z,20.78
2022-09-01T22:42:18.252Z,20.79
2022-09-01T22:44:46.742Z,20.80
2022-09-01T22:47:17.479Z,20.81
2022-09-01T22:49:46.045Z,20.85
2022-09-01T22:52:14.760Z,20.81
2022-09-01T22:54:43.389Z,20.80
2022-09-01T22:57:11.925Z,20.79
2022-09-01T22:59:42.492Z,20.73
2022-09-01T23:02:11.634Z,20.67
2022-09-01T23:04:43.565Z,20.59
2022-09-01T23:07:11.953Z,20.54
2022-09-01T23:09:40.913Z,20.57
2022-09-01T23:12:09.416Z,20.64
2022-09-01T23:14:37.771Z,20.57
2022-09-01T23:17:06.186Z,20.54
2022-09-01T23:19:34.409Z,20.53
2022-09-01T23:22:04.334Z,20.51
2022-09-01T23:24:32.805Z,20.51
2022-09-01T23:27:01.127Z,20.47
2022-09-01T23:29:29.479Z,20.39
2022-09-01T23:31:58.936Z,20.33
2022-09-01T23:34:27.237Z,20.25
2022-09-01T23:36:55.581Z,20.22
2022-09-01T23:39:25.413Z,20.18
2022-09-01T23:41:54.229Z,20.13
2022-09-01T23:44:23.691Z,20.17
2022-09-01T23:46:52.000Z,20.25
2022-09-01T23:49:20.800Z,20.32
2022-09-01T23:51:49.473Z,20.32
2022-09-01T23:54:18.781Z,20.35
2022-09-01T23:56:49.161Z,20.31
2022-09-01T23:59:17.773Z,20.23
